Time;durP1;ratioP1;P1;durP2;ratioP2;P2;SDS_P1;SDS_P2;PMS_P1;PMS_P2;Temp;Humidity;BMP_temperature;BMP_pressure;BME280_temperature;BME280_humidity;BME280_pressure;Samples;Min_cycle;Max_cycle;Signal;HPM_P1;HPM_P2
2021/10/05 00:01:27;;;;;;;7.68;1.88;;;13.10;85.40;;;;;;5005516;28;20026;-71
2021/10/05 00:03:52;;;;;;;11.70;2.28;;;13.20;85.30;;;;;;5010621;28;20121;-71
2021/10/05 00:06:18;;;;;;;6.47;1.90;;;13.10;85.30;;;;;;5003591;28;20160;-71
2021/10/05 00:08:44;;;;;;;8.10;1.90;;;13.20;85.30;;;;;;5004830;28;20038;-72
2021/10/05 00:11:10;;;;;;;4.65;1.40;;;13.20;85.10;;;;;;4988918;28;20035;-71
2021/10/05 00:13:37;;;;;;;7.35;2.00;;;13.20;85.20;;;;;;4987728;28;20093;-74
2021/10/05 00:16:03;;;;;;;8.52;1.90;;;13.20;85.10;;;;;;4979941;28;20026;-74
2021/10/05 00:18:30;;;;;;;11.30;2.10;;;13.20;85.00;;;;;;5003563;28;20482;-71
2021/10/05 00:20:56;;;;;;;6.20;1.70;;;13.30;85.00;;;;;;5007903;28;20041;-73
2021/10/05 00:23:23;;;;;;;9.90;2.30;;;13.30;84.70;;;;;;5009576;28;20377;-71
2021/10/05 00:25:49;;;;;;;5.72;1.92;;;13.30;84.80;;;;;;5004882;28;20062;-71
2021/10/05 00:28:15;;;;;;;5.82;1.70;;;13.30;84.70;;;;;;5001044;28;20062;-72
2021/10/05 00:30:41;;;;;;;6.55;1.67;;;13.30;84.70;;;;;;5007387;28;20093;-71
2021/10/05 00:33:08;;;;;;;8.35;1.85;;;13.30;84.80;;;;;;5007065;28;20120;-72
2021/10/05 00:35:34;;;;;;;8.63;1.90;;;13.20;84.80;;;;;;5006679;28;20117;-72
2021/10/05 00:38:00;;;;;;;8.52;1.77;;;13.20;85.00;;;;;;5008082;28;20120;-72
2021/10/05 00:40:26;;;;;;;6.45;1.77;;;13.20;85.10;;;;;;5004633;28;20045;-72
2021/10/05 00:42:52;;;;;;;8.68;2.10;;;13.20;84.70;;;;;;4999214;28;20042;-71
2021/10/05 00:45:18;;;;;;;6.82;1.88;;;13.20;84.70;;;;;;5005946;28;20027;-73
2021/10/05 00:47:44;;;;;;;5.95;1.67;;;13.20;84.90;;;;;;5003219;28;20038;-72
2021/10/05 00:50:14;;;;;;;9.02;2.30;;;13.20;84.80;;;;;;4995072;28;20172;-71
2021/10/05 00:52:43;;;;;;;5.30;1.65;;;13.20;84.80;;;;;;5008169;28;20037;-71
2021/10/05 00:55:11;;;;;;;5.57;1.52;;;13.30;84.60;;;;;;5001578;28;20105;-75
2021/10/05 00:57:38;;;;;;;6.78;1.85;;;13.30;84.60;;;;;;4995428;28;20034;-72
2021/10/05 01:00:05;;;;;;;7.03;1.75;;;13.30;84.60;;;;;;5000427;28;20034;-75
2021/10/05 01:02:31;;;;;;;6.25;1.75;;;13.30;84.70;;;;;;5007242;28;20548;-71
2021/10/05 01:04:57;;;;;;;6.82;1.70;;;13.20;84.80;;;;;;5006570;28;20034;-71
2021/10/05 01:07:24;;;;;;;17.02;2.72;;;13.20;84.70;;;;;;5002900;28;20038;-71
2021/10/05 01:09:50;;;;;;;7.93;1.98;;;13.20;84.70;;;;;;5006066;28;20442;-71
2021/10/05 01:12:16;;;;;;;6.25;2.15;;;13.20;84.70;;;;;;5008258;28;20389;-71
2021/10/05 01:14:43;;;;;;;5.80;1.67;;;13.10;84.90;;;;;;5011567;28;20037;-73
2021/10/05 01:17:10;;;;;;;7.32;1.80;;;13.10;85.10;;;;;;5001886;28;20962;-71
2021/10/05 01:19:36;;;;;;;5.20;2.00;;;13.10;85.00;;;;;;5000267;28;20065;-71
2021/10/05 01:22:03;;;;;;;9.25;1.75;;;13.10;85.20;;;;;;5002798;28;20042;-74
2021/10/05 01:24:29;;;;;;;5.93;1.80;;;13.10;85.20;;;;;;5006256;28;20035;-71
2021/10/05 01:26:56;;;;;;;9.40;1.95;;;13.10;85.10;;;;;;5008983;28;20103;-73
2021/10/05 01:29:29;;;;;;;9.32;2.38;;;13.10;85.10;;;;;;5003076;28;20041;-73
2021/10/05 01:31:57;;;;;;;5.80;1.92;;;13.10;85.30;;;;;;5005873;28;20042;-72
2021/10/05 01:34:24;;;;;;;7.60;2.08;;;13.10;85.30;;;;;;5005236;28;20058;-71
2021/10/05 01:36:51;;;;;;;5.72;1.88;;;13.10;85.20;;;;;;4998517;28;20034;-72
2021/10/05 01:39:38;;;;;;;8.18;1.85;;;13.10;85.10;;;;;;5008343;28;20360;-71
2021/10/05 01:42:07;;;;;;;7.27;2.23;;;13.10;85.00;;;;;;5004204;28;20037;-74
2021/10/05 01:44:34;;;;;;;9.23;2.38;;;13.10;85.10;;;;;;5006191;28;20044;-71
2021/10/05 01:47:04;;;;;;;8.48;1.95;;;13.10;85.20;;;;;;5004173;28;20122;-70
2021/10/05 01:49:29;;;;;;;10.70;2.13;;;13.00;85.10;;;;;;5001658;28;20038;-70
2021/10/05 01:51:56;;;;;;;7.68;2.30;;;13.00;85.20;;;;;;4991612;28;20040;-70
2021/10/05 01:54:22;;;;;;;7.75;2.30;;;13.00;85.30;;;;;;4983967;28;20066;-74
2021/10/05 01:56:48;;;;;;;8.25;2.13;;;13.00;85.30;;;;;;4984741;28;20130;-72
2021/10/05 01:59:15;;;;;;;8.13;2.45;;;12.80;85.50;;;;;;4984065;28;20113;-71
2021/10/05 02:01:41;;;;;;;9.05;1.98;;;12.90;85.40;;;;;;4984056;28;20085;-74
2021/10/05 02:04:09;;;;;;;9.85;2.50;;;12.90;85.40;;;;;;4986649;28;20435;-70
2021/10/05 02:06:36;;;;;;;6.40;2.30;;;12.90;85.40;;;;;;4982836;28;20039;-73
2021/10/05 02:09:03;;;;;;;7.45;2.25;;;12.80;85.40;;;;;;4986114;28;20035;-72
2021/10/05 02:11:29;;;;;;;7.00;1.92;;;12.80;85.70;;;;;;4988140;28;20034;-71
2021/10/05 02:13:55;;;;;;;6.90;1.92;;;12.70;85.90;;;;;;4988387;28;20369;-70
2021/10/05 02:16:21;;;;;;;9.98;1.92;;;12.80;85.80;;;;;;4983787;28;20035;-71
2021/10/05 02:18:47;;;;;;;6.95;2.35;;;12.70;85.90;;;;;;4982447;28;20434;-70
2021/10/05 02:21:14;;;;;;;7.20;2.28;;;12.80;85.70;;;;;;4990536;28;20426;-70
2021/10/05 02:26:25;;;;;;;6.95;2.10;;;12.70;85.90;;;;;;4983768;28;20049;-75
2021/10/05 02:28:51;;;;;;;11.00;2.20;;;12.60;86.10;;;;;;4984435;28;20035;-73
2021/10/05 02:31:18;;;;;;;9.45;2.13;;;12.70;86.00;;;;;;4987412;28;20550;-71
2021/10/05 02:33:44;;;;;;;8.00;2.47;;;12.70;86.00;;;;;;4985253;28;20031;-71
2021/10/05 02:36:10;;;;;;;8.40;2.30;;;12.70;86.20;;;;;;4986180;28;20030;-70
2021/10/05 02:38:36;;;;;;;7.50;2.25;;;12.70;86.00;;;;;;4986209;28;20076;-71
2021/10/05 02:41:02;;;;;;;6.82;2.40;;;12.60;86.00;;;;;;4985983;28;20034;-71
2021/10/05 02:43:28;;;;;;;5.80;2.63;;;12.60;85.80;;;;;;4984175;28;20047;-73
2021/10/05 02:45:54;;;;;;;6.72;2.40;;;12.60;86.10;;;;;;4986626;28;20114;-74
2021/10/05 02:48:20;;;;;;;10.60;2.85;;;12.60;86.00;;;;;;4984894;28;20073;-71
2021/10/05 02:50:46;;;;;;;7.50;2.40;;;12.60;86.10;;;;;;4985944;28;20085;-71
2021/10/05 02:53:11;;;;;;;6.60;2.22;;;12.60;86.10;;;;;;4986250;28;20034;-71
2021/10/05 02:55:38;;;;;;;11.75;2.70;;;12.60;86.20;;;;;;4989910;28;20037;-72
2021/10/05 02:58:04;;;;;;;7.70;2.40;;;12.60;86.10;;;;;;4981386;28;20069;-71
2021/10/05 03:00:30;;;;;;;8.95;2.55;;;12.60;86.10;;;;;;4991123;28;20109;-72
2021/10/05 03:02:56;;;;;;;10.23;2.17;;;12.60;86.10;;;;;;4980978;28;20165;-70
2021/10/05 03:05:22;;;;;;;6.20;2.30;;;12.60;86.30;;;;;;4987244;28;20053;-71
2021/10/05 03:07:48;;;;;;;6.90;2.35;;;12.60;86.20;;;;;;4987332;28;20027;-71
2021/10/05 03:10:13;;;;;;;7.18;2.72;;;12.60;86.40;;;;;;4987429;28;20049;-70
2021/10/05 03:12:40;;;;;;;7.30;2.55;;;12.60;86.50;;;;;;4987915;28;20053;-71
2021/10/05 03:15:05;;;;;;;7.22;2.55;;;12.60;86.50;;;;;;4987329;28;20077;-72
2021/10/05 03:17:31;;;;;;;7.15;2.33;;;12.60;86.60;;;;;;4983451;28;20064;-70
2021/10/05 03:19:57;;;;;;;8.48;2.33;;;12.60;86.70;;;;;;4987535;28;20030;-70
2021/10/05 03:22:23;;;;;;;7.22;3.05;;;12.50;86.80;;;;;;4987801;28;20501;-70
2021/10/05 03:24:48;;;;;;;8.40;2.58;;;12.50;86.90;;;;;;4990076;28;20033;-71
2021/10/05 03:27:15;;;;;;;8.15;2.70;;;12.50;86.90;;;;;;4982557;28;20133;-71
2021/10/05 03:29:41;;;;;;;7.50;2.40;;;12.50;86.80;;;;;;4987479;28;20053;-74
2021/10/05 03:32:07;;;;;;;8.70;2.55;;;12.50;86.90;;;;;;4983009;28;20089;-73
2021/10/05 03:34:33;;;;;;;8.85;2.47;;;12.50;86.90;;;;;;4988722;28;20035;-70
2021/10/05 03:36:59;;;;;;;9.30;2.80;;;12.50;86.90;;;;;;4978470;28;20502;-72
2021/10/05 03:39:25;;;;;;;10.10;2.10;;;12.50;87.00;;;;;;4995991;28;20037;-71
2021/10/05 03:41:51;;;;;;;10.70;2.90;;;12.40;87.00;;;;;;4987491;28;20471;-70
2021/10/05 03:44:17;;;;;;;7.60;2.30;;;12.50;87.00;;;;;;4983035;28;20137;-73
2021/10/05 03:46:43;;;;;;;7.88;2.55;;;12.40;87.00;;;;;;4985585;28;20130;-71
2021/10/05 03:49:09;;;;;;;6.60;2.20;;;12.40;87.10;;;;;;4988307;28;20038;-72
2021/10/05 03:51:35;;;;;;;5.53;2.00;;;12.40;87.20;;;;;;4989440;28;20053;-71
2021/10/05 03:54:00;;;;;;;6.18;2.00;;;12.50;87.10;;;;;;4984776;28;20069;-70
2021/10/05 03:56:27;;;;;;;7.57;2.20;;;12.50;86.80;;;;;;4984914;28;20459;-72
2021/10/05 03:58:53;;;;;;;8.02;2.47;;;12.50;86.80;;;;;;4981215;28;20048;-71
2021/10/05 04:01:19;;;;;;;9.88;2.53;;;12.50;86.80;;;;;;4985118;28;20034;-73
2021/10/05 04:03:46;;;;;;;8.25;2.38;;;12.50;86.90;;;;;;4984200;28;20092;-70
2021/10/05 04:06:12;;;;;;;7.15;2.28;;;12.50;86.90;;;;;;4986783;28;20100;-71
2021/10/05 04:08:38;;;;;;;8.80;2.83;;;12.40;87.00;;;;;;4986355;28;20030;-72
2021/10/05 04:11:05;;;;;;;9.35;2.70;;;12.40;87.10;;;;;;4979308;28;20389;-71
2021/10/05 04:13:31;;;;;;;6.50;2.38;;;12.40;87.20;;;;;;4984727;28;20042;-70
2021/10/05 04:15:58;;;;;;;10.02;2.78;;;12.40;87.10;;;;;;4997025;28;20084;-73
2021/10/05 04:18:24;;;;;;;8.00;2.42;;;12.40;87.10;;;;;;5012410;28;20455;-71
2021/10/05 04:20:51;;;;;;;11.82;3.15;;;12.40;87.10;;;;;;5003305;28;20386;-70
2021/10/05 04:23:17;;;;;;;8.07;2.70;;;12.40;87.20;;;;;;5009323;28;20062;-73
2021/10/05 04:25:43;;;;;;;10.50;2.60;;;12.40;87.20;;;;;;5003968;28;20068;-71
2021/10/05 04:28:09;;;;;;;8.40;2.50;;;12.30;87.40;;;;;;4994962;28;20429;-75
2021/10/05 04:30:35;;;;;;;10.52;2.47;;;12.40;87.40;;;;;;5004384;28;20512;-70
2021/10/05 04:33:02;;;;;;;7.30;2.53;;;12.30;87.40;;;;;;5001570;28;20041;-74
2021/10/05 04:35:27;;;;;;;6.38;2.85;;;12.30;87.50;;;;;;5002857;28;20029;-75
2021/10/05 04:37:53;;;;;;;9.10;2.78;;;12.40;87.40;;;;;;5000555;28;20111;-70
2021/10/05 04:40:19;;;;;;;9.93;2.72;;;12.40;87.30;;;;;;5000345;28;20049;-71
2021/10/05 04:42:45;;;;;;;9.73;2.65;;;12.40;87.50;;;;;;5003535;28;20038;-71
2021/10/05 04:45:11;;;;;;;8.05;2.75;;;12.40;87.40;;;;;;5009516;28;20041;-74
2021/10/05 04:47:37;;;;;;;7.10;2.40;;;12.40;87.30;;;;;;5000871;28;20524;-70
2021/10/05 04:50:09;;;;;;;10.93;2.50;;;12.50;87.20;;;;;;5008499;28;20354;-71
2021/10/05 04:52:35;;;;;;;8.65;2.55;;;12.50;87.00;;;;;;5006021;28;20049;-70
2021/10/05 04:55:02;;;;;;;8.77;3.15;;;12.50;87.00;;;;;;5005188;28;20046;-70
2021/10/05 04:57:27;;;;;;;8.10;2.78;;;12.50;86.90;;;;;;5004547;28;20080;-70
2021/10/05 04:59:54;;;;;;;10.43;3.83;;;12.40;87.00;;;;;;5000725;28;20069;-70
2021/10/05 05:02:20;;;;;;;12.88;3.85;;;12.40;87.10;;;;;;5003163;28;20088;-70
2021/10/05 05:04:46;;;;;;;10.35;3.33;;;12.40;87.20;;;;;;5000110;28;20037;-70
2021/10/05 05:07:12;;;;;;;10.68;3.53;;;12.40;87.40;;;;;;4999061;28;20026;-70
2021/10/05 05:09:38;;;;;;;12.00;3.40;;;12.30;87.50;;;;;;4998949;28;20041;-70
2021/10/05 05:12:05;;;;;;;8.65;3.28;;;12.30;87.50;;;;;;5001413;28;20042;-70
2021/10/05 05:14:30;;;;;;;11.00;3.55;;;12.30;87.50;;;;;;5003943;28;20040;-70
2021/10/05 05:16:58;;;;;;;11.40;3.50;;;12.30;87.50;;;;;;5002927;28;20116;-70
2021/10/05 05:19:26;;;;;;;9.40;4.15;;;12.30;87.50;;;;;;5003024;28;20035;-70
2021/10/05 05:21:53;;;;;;;10.30;3.60;;;12.30;87.60;;;;;;5002432;28;20036;-70
2021/10/05 05:24:19;;;;;;;8.65;3.20;;;12.30;87.70;;;;;;5003900;28;20052;-70
2021/10/05 05:26:44;;;;;;;9.57;3.83;;;12.20;87.80;;;;;;5002572;28;20038;-70
2021/10/05 05:29:10;;;;;;;9.88;3.47;;;12.10;88.00;;;;;;5001766;28;20117;-71
2021/10/05 05:31:37;;;;;;;8.48;3.78;;;12.10;88.20;;;;;;5001171;28;20034;-72
2021/10/05 05:34:03;;;;;;;12.02;3.90;;;12.20;88.20;;;;;;5001626;28;20125;-70
2021/10/05 05:36:28;;;;;;;10.07;3.83;;;12.20;88.00;;;;;;5002813;28;20144;-71
2021/10/05 05:38:54;;;;;;;10.25;3.47;;;12.30;87.90;;;;;;4999929;28;20093;-68
2021/10/05 05:41:20;;;;;;;9.32;3.20;;;12.20;87.90;;;;;;4997918;28;20042;-69
2021/10/05 05:43:46;;;;;;;10.18;3.03;;;12.30;87.90;;;;;;5000381;28;20053;-70
2021/10/05 05:46:13;;;;;;;8.10;3.33;;;12.30;87.90;;;;;;5000313;28;20038;-68
2021/10/05 05:48:39;;;;;;;9.40;3.60;;;12.30;87.90;;;;;;5000433;28;20064;-68
2021/10/05 05:51:04;;;;;;;9.55;3.70;;;12.30;87.80;;;;;;5001126;28;20088;-67
2021/10/05 05:53:30;;;;;;;8.18;2.85;;;12.20;87.90;;;;;;5001934;28;20132;-68
2021/10/05 05:55:56;;;;;;;9.10;3.13;;;12.30;88.00;;;;;;4997581;28;20042;-69
2021/10/05 05:58:22;;;;;;;8.10;2.65;;;12.30;87.90;;;;;;4997696;28;20519;-69
2021/10/05 06:00:48;;;;;;;7.10;2.88;;;12.30;87.90;;;;;;4999188;28;20034;-67
2021/10/05 06:03:14;;;;;;;8.68;2.90;;;12.30;87.60;;;;;;4996786;28;20409;-70
2021/10/05 06:05:40;;;;;;;9.02;2.92;;;12.40;87.50;;;;;;4995254;28;20486;-69
2021/10/05 06:08:07;;;;;;;7.60;2.85;;;12.40;87.40;;;;;;4998202;28;20072;-69
2021/10/05 06:10:34;;;;;;;8.23;2.83;;;12.40;87.50;;;;;;4999389;28;20761;-68
2021/10/05 06:12:59;;;;;;;7.47;2.80;;;12.40;87.40;;;;;;4999312;28;20039;-68
2021/10/05 06:15:26;;;;;;;9.15;3.42;;;12.50;87.20;;;;;;4993634;28;20128;-68
2021/10/05 06:17:52;;;;;;;12.73;3.30;;;12.60;87.10;;;;;;4997657;28;20065;-69
2021/10/05 06:20:23;;;;;;;10.73;3.47;;;12.60;87.00;;;;;;5002387;28;20477;-70
2021/10/05 06:22:50;;;;;;;10.68;3.10;;;12.60;86.80;;;;;;4996143;28;20049;-68
2021/10/05 06:25:19;;;;;;;7.35;2.78;;;12.60;86.60;;;;;;5001153;28;20482;-68
2021/10/05 06:27:46;;;;;;;10.95;3.40;;;12.70;86.60;;;;;;4994915;28;20072;-68
2021/10/05 06:30:14;;;;;;;11.52;3.42;;;12.60;86.70;;;;;;5000715;28;20114;-69
2021/10/05 06:32:42;;;;;;;9.45;3.17;;;12.70;86.60;;;;;;5000250;28;20108;-70
2021/10/05 06:35:08;;;;;;;8.95;3.28;;;12.70;86.60;;;;;;4994269;28;20112;-72
2021/10/05 06:37:35;;;;;;;10.07;3.53;;;12.70;86.50;;;;;;4999885;28;20061;-70
2021/10/05 06:40:02;;;;;;;12.57;3.42;;;12.80;86.40;;;;;;4996878;28;20128;-71
2021/10/05 06:42:33;;;;;;;11.60;3.80;;;12.70;86.40;;;;;;4987931;28;20039;-68
2021/10/05 06:44:59;;;;;;;8.35;3.10;;;12.70;86.40;;;;;;4984287;28;20482;-68
2021/10/05 06:47:25;;;;;;;8.57;3.30;;;12.70;86.40;;;;;;4984270;28;20037;-70
2021/10/05 06:49:51;;;;;;;8.77;3.38;;;12.70;86.50;;;;;;4980419;28;20057;-68
2021/10/05 06:52:17;;;;;;;9.15;3.30;;;12.70;86.40;;;;;;4978943;28;20129;-70
2021/10/05 06:54:43;;;;;;;8.00;3.40;;;12.70;86.40;;;;;;4985428;28;20042;-68
2021/10/05 06:57:09;;;;;;;10.60;3.50;;;12.70;86.40;;;;;;4985668;28;20040;-74
2021/10/05 06:59:35;;;;;;;8.10;3.17;;;12.80;86.40;;;;;;4984870;28;20382;-68
2021/10/05 07:02:00;;;;;;;10.00;3.17;;;12.80;86.10;;;;;;4982672;28;20814;-69
2021/10/05 07:04:26;;;;;;;9.68;3.17;;;12.90;86.20;;;;;;4988700;28;20438;-68
2021/10/05 07:06:52;;;;;;;9.50;3.15;;;12.90;86.10;;;;;;4985213;28;20038;-68
2021/10/05 07:09:18;;;;;;;11.35;3.28;;;13.00;86.20;;;;;;4986648;28;20121;-68
2021/10/05 07:11:45;;;;;;;11.93;3.58;;;13.10;86.10;;;;;;4986115;28;20164;-69
2021/10/05 07:14:11;;;;;;;10.75;3.35;;;13.10;85.90;;;;;;4984922;28;20031;-69
2021/10/05 07:16:37;;;;;;;10.98;3.10;;;13.20;85.50;;;;;;4987044;28;20050;-69
2021/10/05 07:19:03;;;;;;;10.02;3.42;;;13.20;85.60;;;;;;4985677;28;20638;-69
2021/10/05 07:21:29;;;;;;;11.00;3.13;;;13.20;85.60;;;;;;4988535;28;20049;-69
2021/10/05 07:23:54;;;;;;;6.53;3.25;;;13.30;85.50;;;;;;4983340;28;20050;-72
2021/10/05 07:26:20;;;;;;;11.43;3.63;;;13.30;85.40;;;;;;4986577;28;20061;-69
2021/10/05 07:28:46;;;;;;;9.95;3.00;;;13.30;85.00;;;;;;4985579;28;20158;-68
2021/10/05 07:31:13;;;;;;;8.98;2.90;;;13.40;85.00;;;;;;4988856;28;20478;-69
2021/10/05 07:33:39;;;;;;;7.13;2.83;;;13.50;84.90;;;;;;4987906;28;20085;-74
2021/10/05 07:36:05;;;;;;;11.55;3.00;;;13.60;84.60;;;;;;4985261;28;20046;-68
2021/10/05 07:38:31;;;;;;;8.73;2.33;;;13.70;84.60;;;;;;4985865;28;20049;-67
2021/10/05 07:40:57;;;;;;;9.77;2.95;;;13.70;84.20;;;;;;4990083;28;20034;-69
2021/10/05 07:43:23;;;;;;;7.78;2.35;;;13.80;83.90;;;;;;4987908;28;20055;-68
2021/10/05 07:45:51;;;;;;;10.02;2.50;;;14.00;83.20;;;;;;4993672;28;20045;-69
2021/10/05 07:48:17;;;;;;;8.80;2.58;;;14.00;83.40;;;;;;4985324;28;20030;-67
2021/10/05 07:50:42;;;;;;;10.77;2.75;;;14.00;83.10;;;;;;4987452;28;20101;-68
2021/10/05 07:53:08;;;;;;;9.75;2.42;;;14.10;82.90;;;;;;4987015;28;20496;-68
2021/10/05 07:55:34;;;;;;;8.60;2.10;;;14.10;83.20;;;;;;4988000;28;20601;-68
2021/10/05 07:58:01;;;;;;;7.55;2.00;;;14.10;83.00;;;;;;4981042;28;20033;-68
2021/10/05 08:00:27;;;;;;;8.88;2.10;;;14.10;82.60;;;;;;4983732;28;20037;-73
2021/10/05 08:02:53;;;;;;;8.63;1.77;;;14.10;82.70;;;;;;4984664;28;20150;-68
2021/10/05 08:05:19;;;;;;;6.88;1.80;;;14.10;82.70;;;;;;4982855;28;20489;-67
2021/10/05 08:07:46;;;;;;;8.18;1.92;;;14.10;82.90;;;;;;4984397;28;20047;-69
2021/10/05 08:10:14;;;;;;;7.65;2.08;;;14.10;82.60;;;;;;4985813;28;20054;-68
2021/10/05 08:12:40;;;;;;;8.55;2.38;;;14.00;82.70;;;;;;4984659;28;20117;-68
2021/10/05 08:15:07;;;;;;;11.35;2.63;;;14.00;82.80;;;;;;4990641;28;20066;-68
2021/10/05 08:17:33;;;;;;;7.13;2.20;;;14.00;82.90;;;;;;4987588;28;20026;-67
2021/10/05 08:19:59;;;;;;;8.68;2.47;;;14.00;83.30;;;;;;4986886;28;20117;-69
2021/10/05 08:22:25;;;;;;;10.82;2.65;;;14.00;83.40;;;;;;4987458;28;20125;-68
2021/10/05 08:24:51;;;;;;;6.50;2.10;;;13.90;83.80;;;;;;4985195;28;20125;-69
2021/10/05 08:27:17;;;;;;;9.00;2.33;;;13.90;83.90;;;;;;4983715;28;20093;-68
2021/10/05 08:29:45;;;;;;;7.57;2.17;;;13.80;84.20;;;;;;4985651;28;20034;-69
2021/10/05 08:32:11;;;;;;;10.20;2.80;;;13.70;84.30;;;;;;4980110;28;20043;-68
2021/10/05 08:34:38;;;;;;;8.80;2.60;;;13.60;85.20;;;;;;4982937;28;20137;-69
2021/10/05 08:37:05;;;;;;;8.32;2.50;;;13.60;85.90;;;;;;4982565;28;20112;-69
2021/10/05 08:39:30;;;;;;;8.07;2.65;;;13.40;86.50;;;;;;4990461;28;20029;-68
2021/10/05 08:41:56;;;;;;;10.82;2.78;;;13.30;87.60;;;;;;4995417;28;20089;-70
2021/10/05 08:44:24;;;;;;;8.23;2.95;;;13.20;87.90;;;;;;4985071;28;20461;-68
2021/10/05 08:46:51;;;;;;;5.90;2.63;;;13.20;88.30;;;;;;4984974;28;20026;-69
2021/10/05 08:49:20;;;;;;;8.52;2.75;;;13.10;88.60;;;;;;4980876;28;20090;-70
2021/10/05 08:51:46;;;;;;;10.25;3.40;;;13.10;89.00;;;;;;4979451;28;20038;-69
2021/10/05 08:54:11;;;;;;;9.48;2.92;;;13.10;88.90;;;;;;4979699;28;20046;-72
2021/10/05 08:56:40;;;;;;;11.18;3.20;;;13.10;89.10;;;;;;4991572;28;20041;-70
2021/10/05 08:59:06;;;;;;;11.38;3.00;;;13.10;89.20;;;;;;4999037;28;20053;-69
2021/10/05 09:01:33;;;;;;;8.40;3.08;;;13.20;89.30;;;;;;5005144;28;20034;-69
2021/10/05 09:04:00;;;;;;;8.50;2.78;;;13.30;89.40;;;;;;5001022;28;20037;-68
2021/10/05 09:06:26;;;;;;;9.50;2.80;;;13.30;89.20;;;;;;5000392;28;20030;-68
2021/10/05 09:08:53;;;;;;;7.18;3.00;;;13.40;89.10;;;;;;5003725;28;20458;-68
2021/10/05 09:11:21;;;;;;;8.48;3.13;;;13.30;89.00;;;;;;4997634;28;20510;-69
2021/10/05 09:13:52;;;;;;;8.10;2.90;;;13.40;89.20;;;;;;5004638;28;20466;-68
2021/10/05 09:16:26;;;;;;;10.82;3.03;;;13.40;89.20;;;;;;5002989;28;20033;-70
2021/10/05 09:19:01;;;;;;;7.90;2.90;;;13.40;89.30;;;;;;5008491;28;20535;-69
2021/10/05 09:21:45;;;;;;;6.20;2.80;;;13.40;89.30;;;;;;5002333;28;20042;-68
2021/10/05 09:24:35;;;;;;;8.13;3.20;;;13.30;89.40;;;;;;5001819;28;20043;-68
2021/10/05 09:27:04;;;;;;;7.68;3.08;;;13.30;89.60;;;;;;4993248;28;20120;-72
2021/10/05 09:29:32;;;;;;;8.07;2.92;;;13.30;89.60;;;;;;5006848;28;20030;-69
2021/10/05 09:32:08;;;;;;;7.28;2.38;;;13.30;89.60;;;;;;5001400;28;20038;-69
2021/10/05 09:34:34;;;;;;;6.78;2.47;;;13.30;89.50;;;;;;4998481;28;20040;-72
2021/10/05 09:37:30;;;;;;;10.27;2.88;;;13.30;89.80;;;;;;5005602;28;20034;-69
2021/10/05 09:40:06;;;;;;;7.65;2.33;;;13.20;89.80;;;;;;5003092;28;20077;-68
2021/10/05 09:42:36;;;;;;;6.47;2.42;;;13.20;90.10;;;;;;5002159;28;20444;-68
2021/10/05 09:45:14;;;;;;;6.85;2.35;;;13.20;90.30;;;;;;5002792;28;20040;-70
2021/10/05 09:47:52;;;;;;;7.82;2.50;;;13.20;90.30;;;;;;5004483;28;20157;-68
2021/10/05 09:50:24;;;;;;;8.18;2.40;;;13.20;90.50;;;;;;5005586;28;20532;-68
2021/10/05 09:52:52;;;;;;;6.90;2.55;;;13.20;90.60;;;;;;5007300;28;20029;-69
2021/10/05 09:55:21;;;;;;;6.72;2.47;;;13.20;90.60;;;;;;5003379;28;20034;-68
2021/10/05 09:57:48;;;;;;;6.70;2.85;;;13.30;90.60;;;;;;5000000;28;20120;-68
2021/10/05 10:00:14;;;;;;;5.60;2.08;;;13.30;90.70;;;;;;5000249;28;20042;-68
2021/10/05 10:02:41;;;;;;;8.02;3.08;;;13.30;90.70;;;;;;5001184;28;20034;-71
2021/10/05 10:05:10;;;;;;;7.35;2.38;;;13.30;90.70;;;;;;4997891;28;20359;-69
2021/10/05 10:07:40;;;;;;;6.80;2.33;;;13.40;90.80;;;;;;4998896;28;20038;-68
2021/10/05 10:10:10;;;;;;;5.45;2.28;;;13.40;90.80;;;;;;5003222;28;20022;-72
2021/10/05 10:12:38;;;;;;;7.57;2.40;;;13.30;90.70;;;;;;5000348;28;20076;-68
2021/10/05 10:15:04;;;;;;;5.80;2.20;;;13.40;90.80;;;;;;5004705;28;20039;-68
2021/10/05 10:17:31;;;;;;;4.10;2.00;;;13.40;90.70;;;;;;4999326;28;20038;-69
2021/10/05 10:19:57;;;;;;;6.57;2.35;;;13.50;90.70;;;;;;5000296;28;20034;-68
2021/10/05 10:22:22;;;;;;;6.28;2.67;;;13.50;90.50;;;;;;5005731;28;20034;-68
2021/10/05 10:24:52;;;;;;;8.25;2.35;;;13.60;90.50;;;;;;5004813;28;20033;-71
2021/10/05 10:27:20;;;;;;;4.63;2.40;;;13.60;90.50;;;;;;4998867;28;20051;-68
2021/10/05 10:29:47;;;;;;;5.93;2.60;;;13.60;90.40;;;;;;5005737;28;20037;-69
2021/10/05 10:32:19;;;;;;;12.05;3.38;;;13.60;90.50;;;;;;5005564;28;20025;-68
2021/10/05 10:35:05;;;;;;;7.40;3.00;;;13.60;90.60;;;;;;5008288;28;20061;-68
2021/10/05 10:37:49;;;;;;;6.35;2.97;;;13.70;90.50;;;;;;5004295;28;20030;-72
2021/10/05 10:40:17;;;;;;;6.90;2.47;;;13.70;90.50;;;;;;5002972;28;20425;-68
2021/10/05 10:42:44;;;;;;;8.68;3.00;;;13.70;90.60;;;;;;5003906;28;20046;-69
2021/10/05 10:45:18;;;;;;;5.70;2.97;;;13.80;90.50;;;;;;5007496;28;20057;-68
2021/10/05 10:47:45;;;;;;;4.93;2.42;;;13.80;90.50;;;;;;5007279;28;20033;-68
2021/10/05 10:50:14;;;;;;;6.63;2.65;;;13.80;90.30;;;;;;5009113;28;20042;-69
2021/10/05 10:52:46;;;;;;;8.25;4.20;;;13.80;90.60;;;;;;5010755;28;20030;-69
2021/10/05 10:55:20;;;;;;;6.63;3.05;;;13.90;90.60;;;;;;5009317;28;20042;-72
2021/10/05 10:57:56;;;;;;;6.95;3.13;;;13.90;90.60;;;;;;4997114;28;20060;-69
2021/10/05 11:00:25;;;;;;;6.60;3.08;;;14.00;90.50;;;;;;4997083;28;20054;-69
2021/10/05 11:02:53;;;;;;;5.80;3.15;;;13.90;90.60;;;;;;4998668;28;20488;-69
2021/10/05 11:05:23;;;;;;;5.80;2.88;;;13.90;90.60;;;;;;4996312;28;20053;-73
2021/10/05 11:07:55;;;;;;;6.25;2.90;;;13.90;90.80;;;;;;4998603;28;20030;-68
2021/10/05 11:10:30;;;;;;;5.30;2.88;;;13.90;90.90;;;;;;4997280;28;20076;-68
2021/10/05 11:13:01;;;;;;;4.53;2.40;;;13.80;91.20;;;;;;5000860;28;20501;-71
2021/10/05 11:15:45;;;;;;;4.07;1.90;;;14.00;91.30;;;;;;4997527;28;20105;-69
2021/10/05 11:18:13;;;;;;;5.20;1.88;;;14.20;91.00;;;;;;4997706;28;20431;-69
2021/10/05 11:20:49;;;;;;;4.18;1.85;;;14.20;89.70;;;;;;4998009;28;20560;-69
2021/10/05 11:23:16;;;;;;;3.88;1.70;;;14.30;89.60;;;;;;4997326;28;20596;-70
2021/10/05 11:25:50;;;;;;;4.75;2.10;;;14.40;89.10;;;;;;4985240;28;20595;-69
2021/10/05 11:28:18;;;;;;;3.83;1.85;;;14.60;88.80;;;;;;4993286;28;20049;-69
2021/10/05 11:30:50;;;;;;;3.67;1.90;;;14.70;88.40;;;;;;4997515;28;20033;-71
2021/10/05 11:33:27;;;;;;;4.68;1.80;;;14.70;88.30;;;;;;4998911;28;20034;-68
2021/10/05 11:35:59;;;;;;;3.50;1.98;;;14.80;87.80;;;;;;5002403;28;20457;-70
2021/10/05 11:38:42;;;;;;;6.88;2.22;;;15.00;87.10;;;;;;5002114;28;20377;-70
2021/10/05 11:41:08;;;;;;;4.82;2.17;;;15.00;86.80;;;;;;4996972;28;21121;-74
2021/10/05 11:43:43;;;;;;;5.20;1.90;;;15.10;86.80;;;;;;4999368;28;20053;-69
2021/10/05 11:46:11;;;;;;;;;;;15.10;86.20;;;;;;5001268;28;20480;-70
2021/10/05 11:48:44;;;;;;;3.00;1.45;;;15.20;86.10;;;;;;5008973;28;19920;-68
2021/10/05 11:51:10;;;;;;;4.70;1.70;;;15.20;85.90;;;;;;5009469;28;20614;-69
2021/10/05 11:53:38;;;;;;;3.88;1.73;;;15.30;85.60;;;;;;5011731;28;20072;-69
2021/10/05 11:56:05;;;;;;;6.07;1.50;;;15.50;85.80;;;;;;5003216;28;20042;-70
2021/10/05 11:58:55;;;;;;;4.93;1.90;;;15.50;85.50;;;;;;5004560;28;20038;-72
2021/10/05 12:01:23;;;;;;;3.65;1.60;;;15.70;84.60;;;;;;5002238;28;20115;-69
2021/10/05 12:04:13;;;;;;;5.10;1.90;;;15.80;84.50;;;;;;5007304;28;20386;-70
2021/10/05 12:06:52;;;;;;;5.90;1.83;;;15.80;84.10;;;;;;5002248;28;20042;-70
2021/10/05 12:09:24;;;;;;;6.50;2.00;;;15.70;84.10;;;;;;5001319;28;20030;-70
2021/10/05 12:11:50;;;;;;;7.78;2.28;;;15.70;83.80;;;;;;5001617;28;20058;-73
2021/10/05 12:14:18;;;;;;;7.00;2.47;;;15.60;83.60;;;;;;5001789;28;20042;-68
2021/10/05 12:16:57;;;;;;;6.47;2.33;;;15.60;83.50;;;;;;4984372;28;20482;-69
2021/10/05 12:19:30;;;;;;;7.95;2.42;;;15.60;83.20;;;;;;4985000;28;20861;-68
2021/10/05 12:21:59;;;;;;;7.85;2.28;;;15.60;83.20;;;;;;4983909;28;20116;-69
2021/10/05 12:24:37;;;;;;;8.30;2.30;;;15.70;83.30;;;;;;4986758;28;20043;-70
2021/10/05 12:27:04;;;;;;;5.85;2.28;;;15.80;83.10;;;;;;4983093;28;20061;-68
2021/10/05 12:29:30;;;;;;;5.97;1.85;;;16.00;83.10;;;;;;4987686;28;20038;-69
2021/10/05 12:31:58;;;;;;;10.52;2.50;;;16.40;82.10;;;;;;4984955;28;20037;-68
2021/10/05 12:34:37;;;;;;;6.80;2.15;;;16.70;81.20;;;;;;4987034;28;20038;-69
2021/10/05 12:37:09;;;;;;;7.93;1.95;;;17.00;80.40;;;;;;4990818;28;20030;-72
2021/10/05 12:39:35;;;;;;;10.02;2.30;;;17.30;78.90;;;;;;4992915;28;20050;-69
2021/10/05 12:42:04;;;;;;;10.13;2.10;;;17.30;77.10;;;;;;4985624;28;20035;-70
2021/10/05 12:44:36;;;;;;;8.43;1.95;;;17.30;76.50;;;;;;5003736;28;20049;-69
2021/10/05 12:47:07;;;;;;;7.30;2.05;;;17.30;76.50;;;;;;5005122;28;20552;-71
2021/10/05 12:49:33;;;;;;;10.57;2.72;;;17.10;76.70;;;;;;5002268;28;20037;-69
2021/10/05 12:52:00;;;;;;;8.43;2.20;;;16.90;77.60;;;;;;5007466;28;20057;-69